sensor_id;sensor_type;location;lat;lon;timestamp;pressure;altitude;pressure_sealevel;temperature
37452;BMP280;23314;51.114;6.900;2023-05-10T04:02:33;100600.09;;;13.84
37452;BMP280;23314;51.114;6.900;2023-05-10T04:04:58;100606.41;;;14.03
37452;BMP280;23314;51.114;6.900;2023-05-10T04:07:23;100601.59;;;14.24
37452;BMP280;23314;51.114;6.900;2023-05-10T04:09:49;100607.47;;;14.45
37452;BMP280;23314;51.114;6.900;2023-05-10T04:12:14;100606.13;;;14.62
37452;BMP280;23314;51.114;6.900;2023-05-10T04:14:39;100604.78;;;14.80
37452;BMP280;23314;51.114;6.900;2023-05-10T04:17:05;100610.53;;;14.91
37452;BMP280;23314;51.114;6.900;2023-05-10T04:19:31;100610.47;;;15.04
37452;BMP280;23314;51.114;6.900;2023-05-10T04:21:57;100608.59;;;15.14
37452;BMP280;23314;51.114;6.900;2023-05-10T04:24:23;100609.44;;;15.24
37452;BMP280;23314;51.114;6.900;2023-05-10T04:26:48;100610.34;;;15.30
37452;BMP280;23314;51.114;6.900;2023-05-10T04:29:13;100611.13;;;15.40
37452;BMP280;23314;51.114;6.900;2023-05-10T04:31:39;100608.50;;;15.49
37452;BMP280;23314;51.114;6.900;2023-05-10T04:34:04;100612.84;;;15.56
37452;BMP280;23314;51.114;6.900;2023-05-10T04:36:30;100601.84;;;15.63
37452;BMP280;23314;51.114;6.900;2023-05-10T04:38:55;100602.19;;;15.74
37452;BMP280;23314;51.114;6.900;2023-05-10T04:41:20;100614.47;;;15.84
37452;BMP280;23314;51.114;6.900;2023-05-10T04:43:46;100616.91;;;15.92
37452;BMP280;23314;51.114;6.900;2023-05-10T04:46:14;100612.72;;;16.00
37452;BMP280;23314;51.114;6.900;2023-05-10T04:48:39;100609.47;;;16.05
37452;BMP280;23314;51.114;6.900;2023-05-10T04:51:04;100613.38;;;16.13
37452;BMP280;23314;51.114;6.900;2023-05-10T04:53:31;100616.97;;;16.19
37452;BMP280;23314;51.114;6.900;2023-05-10T04:55:57;100620.69;;;16.22
37452;BMP280;23314;51.114;6.900;2023-05-10T04:58:22;100621.31;;;16.26
37452;BMP280;23314;51.114;6.900;2023-05-10T05:00:47;100631.63;;;16.28
37452;BMP280;23314;51.114;6.900;2023-05-10T05:03:13;100631.19;;;16.29
37452;BMP280;23314;51.114;6.900;2023-05-10T05:05:38;100624.47;;;16.34
37452;BMP280;23314;51.114;6.900;2023-05-10T05:08:04;100630.31;;;16.32
37452;BMP280;23314;51.114;6.900;2023-05-10T05:10:29;100630.13;;;16.27
37452;BMP280;23314;51.114;6.900;2023-05-10T05:12:55;100635.53;;;16.27
37452;BMP280;23314;51.114;6.900;2023-05-10T05:15:20;100630.13;;;16.27
37452;BMP280;23314;51.114;6.900;2023-05-10T05:17:46;100641.34;;;16.25
37452;BMP280;23314;51.114;6.900;2023-05-10T05:20:11;100642.09;;;16.26
37452;BMP280;23314;51.114;6.900;2023-05-10T05:22:38;100642.84;;;16.35
37452;BMP280;23314;51.114;6.900;2023-05-10T05:25:04;100647.66;;;16.50
37452;BMP280;23314;51.114;6.900;2023-05-10T05:27:29;100651.72;;;16.64
37452;BMP280;23314;51.114;6.900;2023-05-10T05:29:56;100654.72;;;16.75
37452;BMP280;23314;51.114;6.900;2023-05-10T05:32:22;100658.16;;;16.76
37452;BMP280;23314;51.114;6.900;2023-05-10T05:34:47;100660.69;;;16.70
37452;BMP280;23314;51.114;6.900;2023-05-10T05:37:17;100661.31;;;16.65
37452;BMP280;23314;51.114;6.900;2023-05-10T05:39:42;100668.16;;;16.57
37452;BMP280;23314;51.114;6.900;2023-05-10T05:42:12;100667.25;;;16.50
37452;BMP280;23314;51.114;6.900;2023-05-10T05:44:37;100676.06;;;16.42
37452;BMP280;23314;51.114;6.900;2023-05-10T05:47:03;100663.81;;;16.41
37452;BMP280;23314;51.114;6.900;2023-05-10T05:49:29;100666.06;;;16.42
37452;BMP280;23314;51.114;6.900;2023-05-10T05:51:54;100671.13;;;16.40
37452;BMP280;23314;51.114;6.900;2023-05-10T05:54:19;100677.09;;;16.35
37452;BMP280;23314;51.114;6.900;2023-05-10T05:56:45;100678.72;;;16.23
37452;BMP280;23314;51.114;6.900;2023-05-10T05:59:10;100674.69;;;16.18
37452;BMP280;23314;51.114;6.900;2023-05-10T06:01:36;100672.13;;;16.15
37452;BMP280;23314;51.114;6.900;2023-05-10T06:04:01;100679.13;;;16.12
37452;BMP280;23314;51.114;6.900;2023-05-10T06:06:28;100690.97;;;16.15
37452;BMP280;23314;51.114;6.900;2023-05-10T06:08:53;100689.78;;;16.16
37452;BMP280;23314;51.114;6.900;2023-05-10T06:11:18;100684.84;;;16.14
37452;BMP280;23314;51.114;6.900;2023-05-10T06:13:45;100693.53;;;16.18
37452;BMP280;23314;51.114;6.900;2023-05-10T06:16:11;100692.03;;;16.27
37452;BMP280;23314;51.114;6.900;2023-05-10T06:18:36;100697.72;;;16.29
37452;BMP280;23314;51.114;6.900;2023-05-10T06:21:01;100701.00;;;16.24
37452;BMP280;23314;51.114;6.900;2023-05-10T06:23:27;100702.19;;;16.23
37452;BMP280;23314;51.114;6.900;2023-05-10T06:25:52;100709.38;;;16.26
37452;BMP280;23314;51.114;6.900;2023-05-10T06:28:17;100710.16;;;16.26
37452;BMP280;23314;51.114;6.900;2023-05-10T06:30:43;100712.84;;;16.26
37452;BMP280;23314;51.114;6.900;2023-05-10T06:33:08;100722.72;;;16.29
37452;BMP280;23314;51.114;6.900;2023-05-10T06:35:33;100713.13;;;16.28
37452;BMP280;23314;51.114;6.900;2023-05-10T06:37:59;100724.34;;;16.27
37452;BMP280;23314;51.114;6.900;2023-05-10T06:40:24;100723.59;;;16.26
37452;BMP280;23314;51.114;6.900;2023-05-10T06:42:49;100719.25;;;16.19
37452;BMP280;23314;51.114;6.900;2023-05-10T06:45:15;100722.94;;;16.13
37452;BMP280;23314;51.114;6.900;2023-05-10T06:47:41;100726.22;;;16.08
37452;BMP280;23314;51.114;6.900;2023-05-10T06:50:07;100733.78;;;16.00
37452;BMP280;23314;51.114;6.900;2023-05-10T06:52:33;100728.69;;;15.93
37452;BMP280;23314;51.114;6.900;2023-05-10T06:54:58;100733.00;;;15.90
37452;BMP280;23314;51.114;6.900;2023-05-10T06:57:24;100737.78;;;15.86
37452;BMP280;23314;51.114;6.900;2023-05-10T06:59:49;100743.91;;;15.86
37452;BMP280;23314;51.114;6.900;2023-05-10T07:02:15;100742.91;;;15.93
37452;BMP280;23314;51.114;6.900;2023-05-10T07:04:40;100740.16;;;16.15
37452;BMP280;23314;51.114;6.900;2023-05-10T07:07:05;100741.41;;;16.33
37452;BMP280;23314;51.114;6.900;2023-05-10T07:09:31;100736.53;;;16.50
37452;BMP280;23314;51.114;6.900;2023-05-10T07:11:56;100728.31;;;16.72
37452;BMP280;23314;51.114;6.900;2023-05-10T07:14:22;100737.63;;;16.99
37452;BMP280;23314;51.114;6.900;2023-05-10T07:16:48;100737.63;;;17.27
37452;BMP280;23314;51.114;6.900;2023-05-10T07:19:13;100740.88;;;17.49
37452;BMP280;23314;51.114;6.900;2023-05-10T07:21:39;100738.78;;;17.63
37452;BMP280;23314;51.114;6.900;2023-05-10T07:24:05;100732.63;;;17.62
37452;BMP280;23314;51.114;6.900;2023-05-10T07:26:31;100742.38;;;17.60
37452;BMP280;23314;51.114;6.900;2023-05-10T07:28:56;100736.97;;;17.60
37452;BMP280;23314;51.114;6.900;2023-05-10T07:31:21;100742.69;;;17.52
37452;BMP280;23314;51.114;6.900;2023-05-10T07:33:47;100746.28;;;17.59
37452;BMP280;23314;51.114;6.900;2023-05-10T07:36:12;100742.00;;;17.76
37452;BMP280;23314;51.114;6.900;2023-05-10T07:38:37;100746.75;;;17.90
37452;BMP280;23314;51.114;6.900;2023-05-10T07:41:03;100742.38;;;18.02
37452;BMP280;23314;51.114;6.900;2023-05-10T07:43:28;100750.44;;;18.12
37452;BMP280;23314;51.114;6.900;2023-05-10T07:45:53;100751.59;;;18.20
37452;BMP280;23314;51.114;6.900;2023-05-10T07:48:19;100753.50;;;18.29
37452;BMP280;23314;51.114;6.900;2023-05-10T07:50:44;100749.28;;;18.37
37452;BMP280;23314;51.114;6.900;2023-05-10T07:53:09;100746.38;;;18.40
37452;BMP280;23314;51.114;6.900;2023-05-10T07:55:35;100747.25;;;18.47
37452;BMP280;23314;51.114;6.900;2023-05-10T07:58:00;100744.03;;;18.57
37452;BMP280;23314;51.114;6.900;2023-05-10T08:00:29;100750.03;;;18.77
37452;BMP280;23314;51.114;6.900;2023-05-10T08:02:54;100746.44;;;18.95
37452;BMP280;23314;51.114;6.900;2023-05-10T08:05:20;100744.59;;;19.01
37452;BMP280;23314;51.114;6.900;2023-05-10T08:07:45;100751.22;;;19.00
37452;BMP280;23314;51.114;6.900;2023-05-10T08:10:10;100755.47;;;18.91
37452;BMP280;23314;51.114;6.900;2023-05-10T08:12:36;100750.00;;;18.86
37452;BMP280;23314;51.114;6.900;2023-05-10T08:15:02;100758.22;;;18.67
37452;BMP280;23314;51.114;6.900;2023-05-10T08:17:28;100768.88;;;18.47
37452;BMP280;23314;51.114;6.900;2023-05-10T08:19:53;100766.84;;;18.32
37452;BMP280;23314;51.114;6.900;2023-05-10T08:22:18;100767.44;;;18.27
37452;BMP280;23314;51.114;6.900;2023-05-10T08:24:44;100769.09;;;18.24
37452;BMP280;23314;51.114;6.900;2023-05-10T08:27:09;100773.38;;;18.40
37452;BMP280;23314;51.114;6.900;2023-05-10T08:29:35;100769.06;;;18.58
37452;BMP280;23314;51.114;6.900;2023-05-10T08:32:00;100775.78;;;18.63
37452;BMP280;23314;51.114;6.900;2023-05-10T08:34:26;100775.47;;;18.46
37452;BMP280;23314;51.114;6.900;2023-05-10T08:36:51;100779.88;;;18.34
37452;BMP280;23314;51.114;6.900;2023-05-10T08:39:17;100784.63;;;18.39
37452;BMP280;23314;51.114;6.900;2023-05-10T08:41:44;100784.84;;;18.60
37452;BMP280;23314;51.114;6.900;2023-05-10T08:44:10;100778.97;;;18.85
37452;BMP280;23314;51.114;6.900;2023-05-10T08:46:36;100788.03;;;19.12
37452;BMP280;23314;51.114;6.900;2023-05-10T08:49:06;100788.28;;;19.38
37452;BMP280;23314;51.114;6.900;2023-05-10T08:51:36;100788.47;;;19.50
37452;BMP280;23314;51.114;6.900;2023-05-10T08:54:02;100792.94;;;19.68
37452;BMP280;23314;51.114;6.900;2023-05-10T08:56:28;100798.94;;;19.92
37452;BMP280;23314;51.114;6.900;2023-05-10T08:58:54;100791.78;;;20.25
37452;BMP280;23314;51.114;6.900;2023-05-10T09:01:21;100796.41;;;20.39
37452;BMP280;23314;51.114;6.900;2023-05-10T09:03:46;100796.25;;;20.28
37452;BMP280;23314;51.114;6.900;2023-05-10T09:06:13;100799.81;;;19.99
37452;BMP280;23314;51.114;6.900;2023-05-10T09:08:40;100804.75;;;19.70
37452;BMP280;23314;51.114;6.900;2023-05-10T09:11:06;100809.28;;;19.43
37452;BMP280;23314;51.114;6.900;2023-05-10T09:13:32;100800.94;;;19.17
37452;BMP280;23314;51.114;6.900;2023-05-10T09:15:58;100804.06;;;19.01
37452;BMP280;23314;51.114;6.900;2023-05-10T09:18:23;100802.75;;;18.96
37452;BMP280;23314;51.114;6.900;2023-05-10T09:20:49;100803.03;;;18.98
37452;BMP280;23314;51.114;6.900;2023-05-10T09:23:14;100806.69;;;18.95
37452;BMP280;23314;51.114;6.900;2023-05-10T09:25:41;100809.47;;;19.01
37452;BMP280;23314;51.114;6.900;2023-05-10T09:28:08;100813.53;;;18.81
37452;BMP280;23314;51.114;6.900;2023-05-10T09:30:34;100818.00;;;18.60
37452;BMP280;23314;51.114;6.900;2023-05-10T09:33:00;100818.16;;;18.32
37452;BMP280;23314;51.114;6.900;2023-05-10T09:35:29;100824.09;;;18.12
37452;BMP280;23314;51.114;6.900;2023-05-10T09:37:55;100834.34;;;17.89
37452;BMP280;23314;51.114;6.900;2023-05-10T09:40:23;100839.75;;;17.71
37452;BMP280;23314;51.114;6.900;2023-05-10T09:43:06;100842.94;;;17.51
37452;BMP280;23314;51.114;6.900;2023-05-10T09:45:34;100838.09;;;17.18
37452;BMP280;23314;51.114;6.900;2023-05-10T09:48:01;100844.66;;;16.80
37452;BMP280;23314;51.114;6.900;2023-05-10T09:50:27;100835.56;;;16.55
37452;BMP280;23314;51.114;6.900;2023-05-10T09:52:55;100841.16;;;16.38
37452;BMP280;23314;51.114;6.900;2023-05-10T09:55:44;100841.72;;;16.24
37452;BMP280;23314;51.114;6.900;2023-05-10T09:58:11;100846.78;;;16.22
37452;BMP280;23314;51.114;6.900;2023-05-10T10:00:39;100842.13;;;16.23
37452;BMP280;23314;51.114;6.900;2023-05-10T10:03:05;100846.22;;;16.27
37452;BMP280;23314;51.114;6.900;2023-05-10T10:05:32;100847.50;;;16.45
37452;BMP280;23314;51.114;6.900;2023-05-10T10:07:59;100839.38;;;16.67
37452;BMP280;23314;51.114;6.900;2023-05-10T10:10:26;100847.53;;;17.04
37452;BMP280;23314;51.114;6.900;2023-05-10T10:12:52;100846.50;;;17.20
37452;BMP280;23314;51.114;6.900;2023-05-10T10:15:17;100847.56;;;17.23
37452;BMP280;23314;51.114;6.900;2023-05-10T10:17:43;100848.63;;;17.25
37452;BMP280;23314;51.114;6.900;2023-05-10T10:20:09;100856.84;;;17.31
37452;BMP280;23314;51.114;6.900;2023-05-10T10:22:36;100863.91;;;17.37
37452;BMP280;23314;51.114;6.900;2023-05-10T10:25:02;100856.56;;;17.47
37452;BMP280;23314;51.114;6.900;2023-05-10T10:27:36;100862.38;;;17.64
37452;BMP280;23314;51.114;6.900;2023-05-10T10:30:23;100861.34;;;17.80
37452;BMP280;23314;51.114;6.900;2023-05-10T10:33:30;100861.59;;;17.92
37452;BMP280;23314;51.114;6.900;2023-05-10T10:36:00;100862.97;;;17.87
37452;BMP280;23314;51.114;6.900;2023-05-10T10:41:35;100863.63;;;18.24
37452;BMP280;23314;51.114;6.900;2023-05-10T10:44:33;100861.59;;;18.77
37452;BMP280;23314;51.114;6.900;2023-05-10T10:52:22;100860.28;;;20.10
37452;BMP280;23314;51.114;6.900;2023-05-10T10:55:11;100848.34;;;20.38
37452;BMP280;23314;51.114;6.900;2023-05-10T11:02:46;100859.75;;;20.42
37452;BMP280;23314;51.114;6.900;2023-05-10T11:07:58;100862.09;;;20.34
37452;BMP280;23314;51.114;6.900;2023-05-10T11:10:25;100857.72;;;20.57
37452;BMP280;23314;51.114;6.900;2023-05-10T11:13:05;100867.78;;;20.92
37452;BMP280;23314;51.114;6.900;2023-05-10T11:15:36;100866.94;;;21.07
37452;BMP280;23314;51.114;6.900;2023-05-10T11:18:18;100872.16;;;21.10
37452;BMP280;23314;51.114;6.900;2023-05-10T11:20:44;100867.41;;;21.05
37452;BMP280;23314;51.114;6.900;2023-05-10T11:23:14;100866.31;;;20.97
37452;BMP280;23314;51.114;6.900;2023-05-10T11:25:45;100863.41;;;20.80
37452;BMP280;23314;51.114;6.900;2023-05-10T11:28:14;100872.94;;;20.70
37452;BMP280;23314;51.114;6.900;2023-05-10T11:30:40;100871.66;;;20.65
37452;BMP280;23314;51.114;6.900;2023-05-10T11:33:06;100873.59;;;20.64
37452;BMP280;23314;51.114;6.900;2023-05-10T11:35:39;100880.88;;;20.58
37452;BMP280;23314;51.114;6.900;2023-05-10T11:38:09;100884.31;;;20.74
37452;BMP280;23314;51.114;6.900;2023-05-10T11:40:36;100874.19;;;20.95
37452;BMP280;23314;51.114;6.900;2023-05-10T11:43:02;100874.53;;;21.03
37452;BMP280;23314;51.114;6.900;2023-05-10T11:45:29;100873.91;;;20.93
37452;BMP280;23314;51.114;6.900;2023-05-10T11:47:57;100880.66;;;20.77
37452;BMP280;23314;51.114;6.900;2023-05-10T11:50:22;100878.72;;;20.62
37452;BMP280;23314;51.114;6.900;2023-05-10T11:52:55;100883.34;;;20.56
37452;BMP280;23314;51.114;6.900;2023-05-10T11:55:21;100882.16;;;20.42
37452;BMP280;23314;51.114;6.900;2023-05-10T11:57:46;100886.50;;;20.34
37452;BMP280;23314;51.114;6.900;2023-05-10T12:00:13;100891.31;;;20.09
37452;BMP280;23314;51.114;6.900;2023-05-10T12:02:38;100889.72;;;19.88
37452;BMP280;23314;51.114;6.900;2023-05-10T12:05:04;100894.28;;;19.67
37452;BMP280;23314;51.114;6.900;2023-05-10T12:07:31;100893.25;;;19.49
37452;BMP280;23314;51.114;6.900;2023-05-10T12:10:12;100892.00;;;19.35
37452;BMP280;23314;51.114;6.900;2023-05-10T12:12:46;100890.13;;;19.26
37452;BMP280;23314;51.114;6.900;2023-05-10T12:15:20;100893.56;;;19.27
37452;BMP280;23314;51.114;6.900;2023-05-10T12:17:47;100901.22;;;19.29
37452;BMP280;23314;51.114;6.900;2023-05-10T12:20:23;100894.22;;;19.37
37452;BMP280;23314;51.114;6.900;2023-05-10T12:22:54;100892.41;;;19.58
37452;BMP280;23314;51.114;6.900;2023-05-10T12:25:21;100899.97;;;19.84
37452;BMP280;23314;51.114;6.900;2023-05-10T12:27:57;100895.97;;;20.09
37452;BMP280;23314;51.114;6.900;2023-05-10T12:30:27;100892.09;;;20.30
37452;BMP280;23314;51.114;6.900;2023-05-10T12:32:58;100884.97;;;20.48
37452;BMP280;23314;51.114;6.900;2023-05-10T12:35:24;100890.09;;;20.46
37452;BMP280;23314;51.114;6.900;2023-05-10T12:37:50;100896.81;;;20.51
37452;BMP280;23314;51.114;6.900;2023-05-10T12:40:16;100897.31;;;20.70
37452;BMP280;23314;51.114;6.900;2023-05-10T12:42:41;100897.38;;;20.75
37452;BMP280;23314;51.114;6.900;2023-05-10T12:45:07;100902.28;;;20.92
37452;BMP280;23314;51.114;6.900;2023-05-10T12:47:33;100897.78;;;21.09
37452;BMP280;23314;51.114;6.900;2023-05-10T12:50:00;100908.63;;;21.30
37452;BMP280;23314;51.114;6.900;2023-05-10T12:52:26;100907.75;;;21.44
37452;BMP280;23314;51.114;6.900;2023-05-10T12:54:52;100904.03;;;21.68
37452;BMP280;23314;51.114;6.900;2023-05-10T12:57:18;100901.03;;;21.92
37452;BMP280;23314;51.114;6.900;2023-05-10T12:59:43;100908.91;;;21.90
37452;BMP280;23314;51.114;6.900;2023-05-10T13:02:09;100918.94;;;21.78
37452;BMP280;23314;51.114;6.900;2023-05-10T13:04:35;100913.66;;;21.69
37452;BMP280;23314;51.114;6.900;2023-05-10T13:07:02;100912.38;;;21.59
37452;BMP280;23314;51.114;6.900;2023-05-10T13:09:27;100919.81;;;21.43
37452;BMP280;23314;51.114;6.900;2023-05-10T13:11:56;100920.06;;;21.13
37452;BMP280;23314;51.114;6.900;2023-05-10T13:14:21;100918.81;;;20.94
37452;BMP280;23314;51.114;6.900;2023-05-10T13:16:47;100916.31;;;20.90
37452;BMP280;23314;51.114;6.900;2023-05-10T13:19:13;100912.84;;;20.90
37452;BMP280;23314;51.114;6.900;2023-05-10T13:21:39;100918.25;;;20.90
37452;BMP280;23314;51.114;6.900;2023-05-10T13:24:06;100912.59;;;20.88
37452;BMP280;23314;51.114;6.900;2023-05-10T13:26:32;100920.22;;;20.89
37452;BMP280;23314;51.114;6.900;2023-05-10T13:28:57;100917.72;;;20.86
37452;BMP280;23314;51.114;6.900;2023-05-10T13:31:22;100914.06;;;20.89
37452;BMP280;23314;51.114;6.900;2023-05-10T13:33:48;100909.34;;;21.04
37452;BMP280;23314;51.114;6.900;2023-05-10T13:36:13;100913.44;;;21.20
37452;BMP280;23314;51.114;6.900;2023-05-10T13:38:38;100908.75;;;21.21
37452;BMP280;23314;51.114;6.900;2023-05-10T13:41:04;100913.59;;;21.11
37452;BMP280;23314;51.114;6.900;2023-05-10T13:43:29;100909.00;;;20.96
37452;BMP280;23314;51.114;6.900;2023-05-10T13:45:55;100910.13;;;20.90
37452;BMP280;23314;51.114;6.900;2023-05-10T13:48:20;100913.63;;;20.75
37452;BMP280;23314;51.114;6.900;2023-05-10T13:50:46;100910.09;;;20.49
37452;BMP280;23314;51.114;6.900;2023-05-10T13:53:11;100912.38;;;20.35
37452;BMP280;23314;51.114;6.900;2023-05-10T13:55:36;100910.53;;;20.26
37452;BMP280;23314;51.114;6.900;2023-05-10T13:58:02;100911.75;;;20.10
37452;BMP280;23314;51.114;6.900;2023-05-10T14:00:27;100912.66;;;19.92
37452;BMP280;23314;51.114;6.900;2023-05-10T14:02:53;100912.22;;;19.79
37452;BMP280;23314;51.114;6.900;2023-05-10T14:05:18;100909.94;;;19.63
37452;BMP280;23314;51.114;6.900;2023-05-10T14:07:44;100904.25;;;19.46
37452;BMP280;23314;51.114;6.900;2023-05-10T14:10:09;100905.22;;;19.33
37452;BMP280;23314;51.114;6.900;2023-05-10T14:12:34;100902.56;;;19.24
37452;BMP280;23314;51.114;6.900;2023-05-10T14:15:00;100909.91;;;19.08
37452;BMP280;23314;51.114;6.900;2023-05-10T14:17:25;100907.84;;;19.03
37452;BMP280;23314;51.114;6.900;2023-05-10T14:19:50;100895.53;;;19.02
37452;BMP280;23314;51.114;6.900;2023-05-10T14:22:16;100900.19;;;19.02
37452;BMP280;23314;51.114;6.900;2023-05-10T14:24:41;100905.59;;;19.02
37452;BMP280;23314;51.114;6.900;2023-05-10T14:27:06;100904.00;;;18.95
37452;BMP280;23314;51.114;6.900;2023-05-10T14:29:32;100907.72;;;18.98
37452;BMP280;23314;51.114;6.900;2023-05-10T14:31:57;100900.75;;;19.06
37452;BMP280;23314;51.114;6.900;2023-05-10T14:34:23;100904.78;;;19.11
37452;BMP280;23314;51.114;6.900;2023-05-10T14:36:48;100902.66;;;19.15
37452;BMP280;23314;51.114;6.900;2023-05-10T14:39:13;100907.91;;;19.18
37452;BMP280;23314;51.114;6.900;2023-05-10T14:41:39;100909.09;;;19.17
37452;BMP280;23314;51.114;6.900;2023-05-10T14:44:06;100902.66;;;19.15
37452;BMP280;23314;51.114;6.900;2023-05-10T14:46:31;100905.66;;;19.17
37452;BMP280;23314;51.114;6.900;2023-05-10T14:48:57;100903.25;;;19.19
37452;BMP280;23314;51.114;6.900;2023-05-10T14:51:22;100903.34;;;19.24
37452;BMP280;23314;51.114;6.900;2023-05-10T14:53:50;100903.81;;;19.38
37452;BMP280;23314;51.114;6.900;2023-05-10T14:56:15;100903.22;;;19.58
37452;BMP280;23314;51.114;6.900;2023-05-10T14:58:40;100897.75;;;19.82
37452;BMP280;23314;51.114;6.900;2023-05-10T15:01:06;100893.34;;;20.15
37452;BMP280;23314;51.114;6.900;2023-05-10T15:03:31;100890.94;;;20.52
37452;BMP280;23314;51.114;6.900;2023-05-10T15:05:56;100893.19;;;20.95
37452;BMP280;23314;51.114;6.900;2023-05-10T15:08:23;100887.31;;;21.23
37452;BMP280;23314;51.114;6.900;2023-05-10T15:10:49;100895.53;;;21.55
37452;BMP280;23314;51.114;6.900;2023-05-10T15:13:15;100891.03;;;21.78
37452;BMP280;23314;51.114;6.900;2023-05-10T15:15:40;100895.47;;;22.07
37452;BMP280;23314;51.114;6.900;2023-05-10T15:18:05;100895.63;;;22.41
37452;BMP280;23314;51.114;6.900;2023-05-10T15:20:31;100892.06;;;22.72
37452;BMP280;23314;51.114;6.900;2023-05-10T15:22:56;100894.13;;;23.00
37452;BMP280;23314;51.114;6.900;2023-05-10T15:25:21;100889.22;;;23.16
37452;BMP280;23314;51.114;6.900;2023-05-10T15:27:48;100895.94;;;23.15
37452;BMP280;23314;51.114;6.900;2023-05-10T15:30:14;100903.31;;;23.08
37452;BMP280;23314;51.114;6.900;2023-05-10T15:32:39;100896.38;;;23.02
37452;BMP280;23314;51.114;6.900;2023-05-10T15:35:07;100891.16;;;22.92
37452;BMP280;23314;51.114;6.900;2023-05-10T15:37:32;100893.59;;;22.79
37452;BMP280;23314;51.114;6.900;2023-05-10T15:39:58;100896.47;;;22.59
37452;BMP280;23314;51.114;6.900;2023-05-10T15:42:29;100889.94;;;22.39
37452;BMP280;23314;51.114;6.900;2023-05-10T15:44:54;100896.34;;;22.36
37452;BMP280;23314;51.114;6.900;2023-05-10T15:47:20;100898.06;;;22.33
37452;BMP280;23314;51.114;6.900;2023-05-10T15:49:45;100895.06;;;22.20
37452;BMP280;23314;51.114;6.900;2023-05-10T15:52:11;100908.03;;;22.48
37452;BMP280;23314;51.114;6.900;2023-05-10T15:54:36;100908.38;;;22.67
37452;BMP280;23314;51.114;6.900;2023-05-10T15:57:02;100906.47;;;22.96
37452;BMP280;23314;51.114;6.900;2023-05-10T15:59:27;100909.25;;;23.13
37452;BMP280;23314;51.114;6.900;2023-05-10T16:01:53;100910.97;;;23.10
37452;BMP280;23314;51.114;6.900;2023-05-10T16:04:18;100914.44;;;23.05
37452;BMP280;23314;51.114;6.900;2023-05-10T16:06:44;100915.66;;;22.98
37452;BMP280;23314;51.114;6.900;2023-05-10T16:09:09;100917.13;;;22.94
37452;BMP280;23314;51.114;6.900;2023-05-10T16:11:34;100915.13;;;22.88
37452;BMP280;23314;51.114;6.900;2023-05-10T16:14:00;100918.63;;;22.95
37452;BMP280;23314;51.114;6.900;2023-05-10T16:16:25;100911.47;;;23.08
37452;BMP280;23314;51.114;6.900;2023-05-10T16:18:51;100915.97;;;23.17
37452;BMP280;23314;51.114;6.900;2023-05-10T16:21:16;100913.47;;;23.19
37452;BMP280;23314;51.114;6.900;2023-05-10T16:23:42;100917.41;;;23.07
37452;BMP280;23314;51.114;6.900;2023-05-10T16:26:10;100918.88;;;23.02
37452;BMP280;23314;51.114;6.900;2023-05-10T16:28:35;100921.34;;;23.00
37452;BMP280;23314;51.114;6.900;2023-05-10T16:31:01;100927.53;;;23.01
37452;BMP280;23314;51.114;6.900;2023-05-10T16:33:26;100926.03;;;22.94
37452;BMP280;23314;51.114;6.900;2023-05-10T16:35:52;100920.81;;;22.85
37452;BMP280;23314;51.114;6.900;2023-05-10T16:38:17;100921.03;;;22.81
37452;BMP280;23314;51.114;6.900;2023-05-10T16:40:42;100929.41;;;22.78
37452;BMP280;23314;51.114;6.900;2023-05-10T16:43:08;100930.44;;;22.80
37452;BMP280;23314;51.114;6.900;2023-05-10T16:45:33;100935.41;;;22.87
37452;BMP280;23314;51.114;6.900;2023-05-10T16:47:58;100927.81;;;23.08
37452;BMP280;23314;51.114;6.900;2023-05-10T16:50:24;100930.84;;;23.33
37452;BMP280;23314;51.114;6.900;2023-05-10T16:52:49;100940.03;;;23.53
37452;BMP280;23314;51.114;6.900;2023-05-10T16:55:14;100942.94;;;23.32
37452;BMP280;23314;51.114;6.900;2023-05-10T16:57:40;100944.91;;;23.15
37452;BMP280;23314;51.114;6.900;2023-05-10T17:00:06;100948.34;;;23.15
37452;BMP280;23314;51.114;6.900;2023-05-10T17:02:32;100946.84;;;23.08
37452;BMP280;23314;51.114;6.900;2023-05-10T17:04:57;100951.03;;;23.04
37452;BMP280;23314;51.114;6.900;2023-05-10T17:07:23;100947.78;;;22.94
37452;BMP280;23314;51.114;6.900;2023-05-10T17:09:48;100952.22;;;22.86
37452;BMP280;23314;51.114;6.900;2023-05-10T17:12:13;100960.19;;;22.46
37452;BMP280;23314;51.114;6.900;2023-05-10T17:14:39;100957.03;;;22.16
37452;BMP280;23314;51.114;6.900;2023-05-10T17:17:04;100960.81;;;21.98
37452;BMP280;23314;51.114;6.900;2023-05-10T17:19:31;100960.31;;;21.67
37452;BMP280;23314;51.114;6.900;2023-05-10T17:21:56;100966.41;;;21.15
37452;BMP280;23314;51.114;6.900;2023-05-10T17:24:21;100976.19;;;20.87
37452;BMP280;23314;51.114;6.900;2023-05-10T17:26:47;100972.69;;;20.66
37452;BMP280;23314;51.114;6.900;2023-05-10T17:29:12;100982.78;;;20.50
37452;BMP280;23314;51.114;6.900;2023-05-10T17:31:40;100987.97;;;20.18
37452;BMP280;23314;51.114;6.900;2023-05-10T17:34:06;100987.06;;;19.97
37452;BMP280;23314;51.114;6.900;2023-05-10T17:36:31;100981.19;;;19.84
37452;BMP280;23314;51.114;6.900;2023-05-10T17:38:57;100999.69;;;19.85
37452;BMP280;23314;51.114;6.900;2023-05-10T17:41:23;100994.66;;;19.78
37452;BMP280;23314;51.114;6.900;2023-05-10T17:43:48;100987.22;;;19.64
37452;BMP280;23314;51.114;6.900;2023-05-10T17:46:14;100990.91;;;19.51
37452;BMP280;23314;51.114;6.900;2023-05-10T17:48:39;100991.28;;;19.44
37452;BMP280;23314;51.114;6.900;2023-05-10T17:51:06;100985.47;;;19.36
37452;BMP280;23314;51.114;6.900;2023-05-10T17:53:33;100994.97;;;19.32
37452;BMP280;23314;51.114;6.900;2023-05-10T17:55:59;100987.75;;;19.29
37452;BMP280;23314;51.114;6.900;2023-05-10T17:58:26;100987.66;;;19.23
37452;BMP280;23314;51.114;6.900;2023-05-10T18:00:52;100995.81;;;19.14
37452;BMP280;23314;51.114;6.900;2023-05-10T18:03:18;100992.13;;;19.02
37452;BMP280;23314;51.114;6.900;2023-05-10T18:05:45;100994.22;;;18.98
37452;BMP280;23314;51.114;6.900;2023-05-10T18:08:11;101008.81;;;18.91
37452;BMP280;23314;51.114;6.900;2023-05-10T18:10:36;101011.25;;;18.89